sensor_id;sensor_type;location;lat;lon;timestamp;P1;durP1;ratioP1;P2;durP2;ratioP2
68843;SDS011;55850;51.244;6.824;2022-09-13T00:01:00;3.78;;;2.70;;
68843;SDS011;55850;51.244;6.824;2022-09-13T00:06:13;3.67;;;2.35;;
68843;SDS011;55850;51.244;6.824;2022-09-13T00:11:21;4.67;;;2.70;;
68843;SDS011;55850;51.244;6.824;2022-09-13T00:16:32;4.73;;;2.80;;
68843;SDS011;55850;51.244;6.824;2022-09-13T00:21:38;3.53;;;2.50;;
68843;SDS011;55850;51.244;6.824;2022-09-13T00:26:43;4.10;;;2.22;;
68843;SDS011;55850;51.244;6.824;2022-09-13T00:31:52;5.63;;;3.03;;
68843;SDS011;55850;51.244;6.824;2022-09-13T00:36:58;6.30;;;2.97;;
68843;SDS011;55850;51.244;6.824;2022-09-13T00:42:03;4.10;;;2.92;;
68843;SDS011;55850;51.244;6.824;2022-09-13T00:47:12;4.70;;;2.77;;
68843;SDS011;55850;51.244;6.824;2022-09-13T00:52:21;4.82;;;3.20;;
68843;SDS011;55850;51.244;6.824;2022-09-13T00:57:29;5.18;;;3.13;;
68843;SDS011;55850;51.244;6.824;2022-09-13T01:02:42;4.67;;;3.17;;
68843;SDS011;55850;51.244;6.824;2022-09-13T01:07:53;6.40;;;3.50;;
68843;SDS011;55850;51.244;6.824;2022-09-13T01:13:02;4.13;;;2.75;;
68843;SDS011;55850;51.244;6.824;2022-09-13T01:18:19;3.90;;;2.45;;
68843;SDS011;55850;51.244;6.824;2022-09-13T01:23:29;5.40;;;3.03;;
68843;SDS011;55850;51.244;6.824;2022-09-13T01:29:07;5.07;;;2.72;;
68843;SDS011;55850;51.244;6.824;2022-09-13T01:34:36;4.15;;;2.72;;
68843;SDS011;55850;51.244;6.824;2022-09-13T01:40:00;3.70;;;2.50;;
68843;SDS011;55850;51.244;6.824;2022-09-13T01:45:11;4.18;;;2.80;;
68843;SDS011;55850;51.244;6.824;2022-09-13T01:50:32;4.13;;;2.75;;
68843;SDS011;55850;51.244;6.824;2022-09-13T01:55:45;5.90;;;3.47;;
68843;SDS011;55850;51.244;6.824;2022-09-13T02:00:57;6.73;;;3.30;;
68843;SDS011;55850;51.244;6.824;2022-09-13T02:06:11;5.45;;;2.88;;
68843;SDS011;55850;51.244;6.824;2022-09-13T02:11:22;4.50;;;2.80;;
68843;SDS011;55850;51.244;6.824;2022-09-13T02:16:29;3.73;;;2.70;;
68843;SDS011;55850;51.244;6.824;2022-09-13T02:21:42;4.35;;;2.92;;
68843;SDS011;55850;51.244;6.824;2022-09-13T02:26:50;4.15;;;2.50;;
68843;SDS011;55850;51.244;6.824;2022-09-13T02:31:58;6.23;;;3.30;;
68843;SDS011;55850;51.244;6.824;2022-09-13T02:37:10;5.20;;;2.45;;
68843;SDS011;55850;51.244;6.824;2022-09-13T02:42:18;5.85;;;3.28;;
68843;SDS011;55850;51.244;6.824;2022-09-13T02:47:31;6.47;;;2.87;;
68843;SDS011;55850;51.244;6.824;2022-09-13T02:52:46;6.07;;;2.93;;
68843;SDS011;55850;51.244;6.824;2022-09-13T02:57:57;3.95;;;2.67;;
68843;SDS011;55850;51.244;6.824;2022-09-13T03:03:07;6.97;;;2.92;;
68843;SDS011;55850;51.244;6.824;2022-09-13T03:08:18;4.40;;;2.70;;
68843;SDS011;55850;51.244;6.824;2022-09-13T03:13:32;4.70;;;2.90;;
68843;SDS011;55850;51.244;6.824;2022-09-13T03:18:48;4.68;;;3.00;;
68843;SDS011;55850;51.244;6.824;2022-09-13T03:24:05;5.03;;;3.20;;
68843;SDS011;55850;51.244;6.824;2022-09-13T03:29:22;5.43;;;3.20;;
68843;SDS011;55850;51.244;6.824;2022-09-13T03:34:33;7.15;;;2.90;;
68843;SDS011;55850;51.244;6.824;2022-09-13T03:39:51;7.60;;;3.33;;
68843;SDS011;55850;51.244;6.824;2022-09-13T03:45:01;5.33;;;3.13;;
68843;SDS011;55850;51.244;6.824;2022-09-13T03:50:09;7.13;;;3.22;;
68843;SDS011;55850;51.244;6.824;2022-09-13T03:55:22;6.97;;;3.17;;
68843;SDS011;55850;51.244;6.824;2022-09-13T04:00:28;5.70;;;3.57;;
68843;SDS011;55850;51.244;6.824;2022-09-13T04:05:34;6.53;;;3.90;;
68843;SDS011;55850;51.244;6.824;2022-09-13T04:10:43;6.63;;;3.40;;
68843;SDS011;55850;51.244;6.824;2022-09-13T04:15:49;4.97;;;3.20;;
68843;SDS011;55850;51.244;6.824;2022-09-13T04:20:55;4.60;;;3.17;;
68843;SDS011;55850;51.244;6.824;2022-09-13T04:26:04;5.28;;;3.08;;
68843;SDS011;55850;51.244;6.824;2022-09-13T04:31:13;6.80;;;3.70;;
68843;SDS011;55850;51.244;6.824;2022-09-13T04:36:18;5.90;;;3.40;;
68843;SDS011;55850;51.244;6.824;2022-09-13T04:41:26;5.63;;;3.63;;
68843;SDS011;55850;51.244;6.824;2022-09-13T04:46:35;4.72;;;3.25;;
68843;SDS011;55850;51.244;6.824;2022-09-13T04:51:41;7.60;;;3.60;;
68843;SDS011;55850;51.244;6.824;2022-09-13T04:56:49;4.80;;;3.05;;
68843;SDS011;55850;51.244;6.824;2022-09-13T05:01:55;8.25;;;3.58;;
68843;SDS011;55850;51.244;6.824;2022-09-13T05:07:01;5.37;;;4.17;;
68843;SDS011;55850;51.244;6.824;2022-09-13T05:12:09;9.52;;;3.85;;
68843;SDS011;55850;51.244;6.824;2022-09-13T05:17:16;5.93;;;3.70;;
68843;SDS011;55850;51.244;6.824;2022-09-13T05:22:22;5.23;;;3.80;;
68843;SDS011;55850;51.244;6.824;2022-09-13T05:27:31;4.93;;;3.87;;
68843;SDS011;55850;51.244;6.824;2022-09-13T05:32:36;5.20;;;3.53;;
68843;SDS011;55850;51.244;6.824;2022-09-13T05:37:41;5.95;;;3.47;;
68843;SDS011;55850;51.244;6.824;2022-09-13T05:42:50;5.43;;;3.47;;
68843;SDS011;55850;51.244;6.824;2022-09-13T05:47:57;4.90;;;3.67;;
68843;SDS011;55850;51.244;6.824;2022-09-13T05:53:02;9.85;;;4.03;;
68843;SDS011;55850;51.244;6.824;2022-09-13T05:58:10;4.53;;;3.60;;
68843;SDS011;55850;51.244;6.824;2022-09-13T06:03:16;5.45;;;3.58;;
68843;SDS011;55850;51.244;6.824;2022-09-13T06:08:22;5.55;;;3.38;;
68843;SDS011;55850;51.244;6.824;2022-09-13T06:13:30;5.00;;;3.87;;
68843;SDS011;55850;51.244;6.824;2022-09-13T06:18:36;10.00;;;3.00;;
68843;SDS011;55850;51.244;6.824;2022-09-13T06:23:42;6.75;;;3.80;;
68843;SDS011;55850;51.244;6.824;2022-09-13T06:28:52;6.43;;;3.50;;
68843;SDS011;55850;51.244;6.824;2022-09-13T06:33:59;6.83;;;3.43;;
68843;SDS011;55850;51.244;6.824;2022-09-13T06:39:06;5.93;;;4.00;;
68843;SDS011;55850;51.244;6.824;2022-09-13T06:44:14;5.22;;;3.50;;
68843;SDS011;55850;51.244;6.824;2022-09-13T06:49:20;6.43;;;3.27;;
68843;SDS011;55850;51.244;6.824;2022-09-13T06:54:28;5.15;;;3.67;;
68843;SDS011;55850;51.244;6.824;2022-09-13T06:59:36;6.38;;;3.78;;
68843;SDS011;55850;51.244;6.824;2022-09-13T07:04:42;7.93;;;4.13;;
68843;SDS011;55850;51.244;6.824;2022-09-13T07:09:48;5.17;;;3.70;;
68843;SDS011;55850;51.244;6.824;2022-09-13T07:14:57;8.27;;;3.90;;
68843;SDS011;55850;51.244;6.824;2022-09-13T07:20:02;6.15;;;3.45;;
68843;SDS011;55850;51.244;6.824;2022-09-13T07:25:11;5.70;;;3.90;;
68843;SDS011;55850;51.244;6.824;2022-09-13T07:30:19;6.57;;;3.90;;
68843;SDS011;55850;51.244;6.824;2022-09-13T07:35:26;6.13;;;3.63;;
68843;SDS011;55850;51.244;6.824;2022-09-13T07:40:32;7.50;;;3.70;;
68843;SDS011;55850;51.244;6.824;2022-09-13T07:45:41;8.10;;;3.65;;
68843;SDS011;55850;51.244;6.824;2022-09-13T07:50:55;7.07;;;4.18;;
68843;SDS011;55850;51.244;6.824;2022-09-13T07:56:02;5.80;;;3.50;;
68843;SDS011;55850;51.244;6.824;2022-09-13T08:01:13;8.27;;;4.00;;
68843;SDS011;55850;51.244;6.824;2022-09-13T08:06:20;6.28;;;3.72;;
68843;SDS011;55850;51.244;6.824;2022-09-13T08:11:28;7.75;;;4.00;;
68843;SDS011;55850;51.244;6.824;2022-09-13T08:16:37;5.23;;;3.60;;
68843;SDS011;55850;51.244;6.824;2022-09-13T08:21:44;6.25;;;3.95;;
68843;SDS011;55850;51.244;6.824;2022-09-13T08:26:52;7.88;;;4.07;;
68843;SDS011;55850;51.244;6.824;2022-09-13T08:32:01;5.90;;;3.67;;
68843;SDS011;55850;51.244;6.824;2022-09-13T08:37:06;7.25;;;3.50;;
68843;SDS011;55850;51.244;6.824;2022-09-13T08:42:16;5.00;;;3.50;;
68843;SDS011;55850;51.244;6.824;2022-09-13T08:47:33;5.77;;;3.40;;
68843;SDS011;55850;51.244;6.824;2022-09-13T08:58:11;7.18;;;3.72;;
68843;SDS011;55850;51.244;6.824;2022-09-13T09:03:34;6.28;;;4.10;;
68843;SDS011;55850;51.244;6.824;2022-09-13T09:08:46;6.13;;;4.00;;
68843;SDS011;55850;51.244;6.824;2022-09-13T09:13:56;9.60;;;4.88;;
68843;SDS011;55850;51.244;6.824;2022-09-13T09:19:15;6.80;;;3.83;;
68843;SDS011;55850;51.244;6.824;2022-09-13T09:24:28;8.27;;;3.40;;
68843;SDS011;55850;51.244;6.824;2022-09-13T09:29:39;6.57;;;4.07;;
68843;SDS011;55850;51.244;6.824;2022-09-13T09:34:51;6.10;;;3.72;;
68843;SDS011;55850;51.244;6.824;2022-09-13T09:40:09;9.60;;;4.73;;
68843;SDS011;55850;51.244;6.824;2022-09-13T09:45:22;8.33;;;4.40;;
68843;SDS011;55850;51.244;6.824;2022-09-13T09:50:33;7.70;;;4.07;;
68843;SDS011;55850;51.244;6.824;2022-09-13T09:55:45;5.25;;;3.75;;
68843;SDS011;55850;51.244;6.824;2022-09-13T10:00:55;6.63;;;4.40;;
68843;SDS011;55850;51.244;6.824;2022-09-13T10:06:07;9.35;;;4.95;;
68843;SDS011;55850;51.244;6.824;2022-09-13T10:11:15;7.72;;;3.83;;
68843;SDS011;55850;51.244;6.824;2022-09-13T10:16:24;8.00;;;4.73;;
68843;SDS011;55850;51.244;6.824;2022-09-13T10:21:34;6.32;;;4.05;;
68843;SDS011;55850;51.244;6.824;2022-09-13T10:26:40;8.93;;;4.28;;
68843;SDS011;55850;51.244;6.824;2022-09-13T10:31:46;7.93;;;5.20;;
68843;SDS011;55850;51.244;6.824;2022-09-13T10:36:58;6.27;;;4.30;;
68843;SDS011;55850;51.244;6.824;2022-09-13T10:42:07;6.38;;;3.35;;
68843;SDS011;55850;51.244;6.824;2022-09-13T10:47:17;5.97;;;3.40;;
68843;SDS011;55850;51.244;6.824;2022-09-13T10:52:27;4.03;;;3.13;;
68843;SDS011;55850;51.244;6.824;2022-09-13T10:57:35;5.95;;;3.42;;
68843;SDS011;55850;51.244;6.824;2022-09-13T11:02:45;8.30;;;3.15;;
68843;SDS011;55850;51.244;6.824;2022-09-13T11:08:27;4.17;;;2.77;;
68843;SDS011;55850;51.244;6.824;2022-09-13T11:13:44;6.65;;;3.00;;
68843;SDS011;55850;51.244;6.824;2022-09-13T11:24:43;7.13;;;2.97;;
68843;SDS011;55850;51.244;6.824;2022-09-13T11:30:08;7.20;;;2.80;;
68843;SDS011;55850;51.244;6.824;2022-09-13T11:35:24;3.58;;;2.40;;
68843;SDS011;55850;51.244;6.824;2022-09-13T11:40:38;4.25;;;2.38;;
68843;SDS011;55850;51.244;6.824;2022-09-13T11:45:56;5.23;;;2.63;;
68843;SDS011;55850;51.244;6.824;2022-09-13T11:51:11;9.07;;;2.90;;
68843;SDS011;55850;51.244;6.824;2022-09-13T11:56:26;4.53;;;2.45;;
68843;SDS011;55850;51.244;6.824;2022-09-13T12:01:37;5.07;;;2.53;;
68843;SDS011;55850;51.244;6.824;2022-09-13T12:06:47;6.78;;;2.60;;
68843;SDS011;55850;51.244;6.824;2022-09-13T12:12:02;4.28;;;2.40;;
68843;SDS011;55850;51.244;6.824;2022-09-13T12:17:13;4.50;;;2.27;;
68843;SDS011;55850;51.244;6.824;2022-09-13T12:22:29;3.97;;;1.90;;
68843;SDS011;55850;51.244;6.824;2022-09-13T12:27:42;2.63;;;2.30;;
68843;SDS011;55850;51.244;6.824;2022-09-13T12:32:55;4.35;;;3.00;;
68843;SDS011;55850;51.244;6.824;2022-09-13T12:38:13;3.57;;;2.37;;
68843;SDS011;55850;51.244;6.824;2022-09-13T12:43:49;4.35;;;2.67;;
68843;SDS011;55850;51.244;6.824;2022-09-13T12:49:09;4.28;;;2.97;;
68843;SDS011;55850;51.244;6.824;2022-09-13T12:54:29;3.57;;;2.50;;
68843;SDS011;55850;51.244;6.824;2022-09-13T13:05:24;8.98;;;2.30;;
68843;SDS011;55850;51.244;6.824;2022-09-13T13:10:34;4.37;;;2.87;;
68843;SDS011;55850;51.244;6.824;2022-09-13T13:15:58;3.47;;;1.93;;
68843;SDS011;55850;51.244;6.824;2022-09-13T13:26:45;4.75;;;2.20;;
68843;SDS011;55850;51.244;6.824;2022-09-13T13:37:26;2.70;;;2.00;;
68843;SDS011;55850;51.244;6.824;2022-09-13T13:42:37;3.53;;;2.00;;
68843;SDS011;55850;51.244;6.824;2022-09-13T13:53:34;3.90;;;1.80;;
68843;SDS011;55850;51.244;6.824;2022-09-13T13:58:43;3.28;;;2.03;;
68843;SDS011;55850;51.244;6.824;2022-09-13T14:09:31;2.70;;;1.80;;
68843;SDS011;55850;51.244;6.824;2022-09-13T14:14:48;3.65;;;1.95;;
68843;SDS011;55850;51.244;6.824;2022-09-13T14:20:07;4.32;;;1.92;;
68843;SDS011;55850;51.244;6.824;2022-09-13T14:25:23;4.20;;;2.53;;
68843;SDS011;55850;51.244;6.824;2022-09-13T14:30:30;4.00;;;2.50;;
68843;SDS011;55850;51.244;6.824;2022-09-13T14:35:39;6.38;;;2.17;;
68843;SDS011;55850;51.244;6.824;2022-09-13T14:40:48;2.23;;;2.03;;
68843;SDS011;55850;51.244;6.824;2022-09-13T14:45:56;4.07;;;2.50;;
68843;SDS011;55850;51.244;6.824;2022-09-13T14:51:11;4.13;;;2.55;;
68843;SDS011;55850;51.244;6.824;2022-09-13T14:56:29;4.03;;;2.37;;
68843;SDS011;55850;51.244;6.824;2022-09-13T15:01:39;3.10;;;2.00;;
68843;SDS011;55850;51.244;6.824;2022-09-13T15:06:45;2.55;;;1.92;;
68843;SDS011;55850;51.244;6.824;2022-09-13T15:11:57;3.13;;;2.03;;
68843;SDS011;55850;51.244;6.824;2022-09-13T15:17:08;3.93;;;2.13;;
68843;SDS011;55850;51.244;6.824;2022-09-13T15:22:19;3.40;;;2.20;;
68843;SDS011;55850;51.244;6.824;2022-09-13T15:27:32;3.55;;;2.50;;
68843;SDS011;55850;51.244;6.824;2022-09-13T15:32:48;4.83;;;2.50;;
68843;SDS011;55850;51.244;6.824;2022-09-13T15:37:58;4.97;;;2.20;;
68843;SDS011;55850;51.244;6.824;2022-09-13T15:43:07;3.63;;;2.70;;
68843;SDS011;55850;51.244;6.824;2022-09-13T15:48:15;3.83;;;2.37;;
68843;SDS011;55850;51.244;6.824;2022-09-13T15:53:32;3.30;;;2.40;;
68843;SDS011;55850;51.244;6.824;2022-09-13T15:58:42;2.88;;;2.42;;
68843;SDS011;55850;51.244;6.824;2022-09-13T16:03:48;4.05;;;2.17;;
68843;SDS011;55850;51.244;6.824;2022-09-13T16:08:54;4.97;;;2.60;;
68843;SDS011;55850;51.244;6.824;2022-09-13T16:14:04;4.32;;;2.92;;
68843;SDS011;55850;51.244;6.824;2022-09-13T16:19:11;3.92;;;2.92;;
68843;SDS011;55850;51.244;6.824;2022-09-13T16:24:18;4.67;;;2.80;;
68843;SDS011;55850;51.244;6.824;2022-09-13T16:29:26;4.32;;;3.30;;
68843;SDS011;55850;51.244;6.824;2022-09-13T16:34:35;5.80;;;3.25;;
68843;SDS011;55850;51.244;6.824;2022-09-13T16:39:41;5.43;;;3.17;;
68843;SDS011;55850;51.244;6.824;2022-09-13T16:44:49;6.50;;;4.10;;
68843;SDS011;55850;51.244;6.824;2022-09-13T16:49:55;6.85;;;4.50;;
68843;SDS011;55850;51.244;6.824;2022-09-13T16:55:01;7.40;;;3.90;;
68843;SDS011;55850;51.244;6.824;2022-09-13T17:00:11;4.23;;;3.63;;
68843;SDS011;55850;51.244;6.824;2022-09-13T17:05:19;6.72;;;3.55;;
68843;SDS011;55850;51.244;6.824;2022-09-13T17:10:25;7.93;;;4.70;;
68843;SDS011;55850;51.244;6.824;2022-09-13T17:15:36;5.20;;;4.13;;
68843;SDS011;55850;51.244;6.824;2022-09-13T17:20:42;11.88;;;6.38;;
68843;SDS011;55850;51.244;6.824;2022-09-13T17:25:48;9.55;;;5.38;;
68843;SDS011;55850;51.244;6.824;2022-09-13T17:30:56;5.37;;;3.93;;
68843;SDS011;55850;51.244;6.824;2022-09-13T17:36:04;7.70;;;4.83;;
68843;SDS011;55850;51.244;6.824;2022-09-13T17:41:14;7.07;;;4.68;;
68843;SDS011;55850;51.244;6.824;2022-09-13T17:46:24;5.78;;;4.22;;
68843;SDS011;55850;51.244;6.824;2022-09-13T17:51:31;6.13;;;4.67;;
68843;SDS011;55850;51.244;6.824;2022-09-13T17:56:38;5.43;;;4.10;;
68843;SDS011;55850;51.244;6.824;2022-09-13T18:01:49;8.18;;;4.10;;
68843;SDS011;55850;51.244;6.824;2022-09-13T18:06:57;5.93;;;3.47;;
68843;SDS011;55850;51.244;6.824;2022-09-13T18:12:03;7.05;;;4.80;;
68843;SDS011;55850;51.244;6.824;2022-09-13T18:17:11;4.90;;;4.13;;
68843;SDS011;55850;51.244;6.824;2022-09-13T18:22:17;5.87;;;3.80;;
68843;SDS011;55850;51.244;6.824;2022-09-13T18:27:23;6.00;;;3.20;;
68843;SDS011;55850;51.244;6.824;2022-09-13T18:32:32;7.85;;;4.00;;
68843;SDS011;55850;51.244;6.824;2022-09-13T18:37:37;9.27;;;4.30;;
68843;SDS011;55850;51.244;6.824;2022-09-13T18:42:43;6.70;;;3.30;;
68843;SDS011;55850;51.244;6.824;2022-09-13T18:47:51;6.80;;;4.30;;
68843;SDS011;55850;51.244;6.824;2022-09-13T18:52:57;6.55;;;4.53;;
68843;SDS011;55850;51.244;6.824;2022-09-13T18:58:03;7.53;;;4.67;;
68843;SDS011;55850;51.244;6.824;2022-09-13T19:03:17;9.07;;;4.47;;
68843;SDS011;55850;51.244;6.824;2022-09-13T19:08:23;6.32;;;4.38;;
68843;SDS011;55850;51.244;6.824;2022-09-13T19:13:29;8.93;;;6.37;;
68843;SDS011;55850;51.244;6.824;2022-09-13T19:18:38;7.43;;;5.90;;
68843;SDS011;55850;51.244;6.824;2022-09-13T19:23:47;11.55;;;6.95;;
68843;SDS011;55850;51.244;6.824;2022-09-13T19:29:02;10.85;;;7.60;;
68843;SDS011;55850;51.244;6.824;2022-09-13T19:34:12;11.30;;;8.37;;
68843;SDS011;55850;51.244;6.824;2022-09-13T19:39:18;9.57;;;6.63;;
68843;SDS011;55850;51.244;6.824;2022-09-13T19:44:30;11.77;;;7.00;;
68843;SDS011;55850;51.244;6.824;2022-09-13T19:49:39;12.40;;;7.53;;
68843;SDS011;55850;51.244;6.824;2022-09-13T19:54:44;13.35;;;6.45;;
68843;SDS011;55850;51.244;6.824;2022-09-13T19:59:52;11.43;;;7.13;;
68843;SDS011;55850;51.244;6.824;2022-09-13T20:05:00;8.93;;;7.33;;
68843;SDS011;55850;51.244;6.824;2022-09-13T20:10:06;10.73;;;7.63;;
68843;SDS011;55850;51.244;6.824;2022-09-13T20:15:13;11.43;;;7.93;;
68843;SDS011;55850;51.244;6.824;2022-09-13T20:20:22;7.70;;;6.72;;
68843;SDS011;55850;51.244;6.824;2022-09-13T20:25:28;11.70;;;7.60;;
68843;SDS011;55850;51.244;6.824;2022-09-13T20:30:34;11.43;;;8.38;;
68843;SDS011;55850;51.244;6.824;2022-09-13T20:35:45;11.60;;;8.52;;
68843;SDS011;55850;51.244;6.824;2022-09-13T20:40:51;10.87;;;8.10;;
68843;SDS011;55850;51.244;6.824;2022-09-13T20:45:56;11.25;;;8.52;;
68843;SDS011;55850;51.244;6.824;2022-09-13T20:51:06;10.77;;;7.72;;
68843;SDS011;55850;51.244;6.824;2022-09-13T20:56:14;12.90;;;7.87;;
68843;SDS011;55850;51.244;6.824;2022-09-13T21:01:21;14.83;;;8.50;;
68843;SDS011;55850;51.244;6.824;2022-09-13T21:06:30;15.23;;;9.48;;
68843;SDS011;55850;51.244;6.824;2022-09-13T21:12:01;14.63;;;9.43;;
68843;SDS011;55850;51.244;6.824;2022-09-13T21:17:10;17.10;;;11.63;;
68843;SDS011;55850;51.244;6.824;2022-09-13T21:22:18;8.30;;;5.47;;
68843;SDS011;55850;51.244;6.824;2022-09-13T21:27:25;8.13;;;4.90;;
68843;SDS011;55850;51.244;6.824;2022-09-13T21:32:31;8.27;;;4.50;;
68843;SDS011;55850;51.244;6.824;2022-09-13T21:37:39;5.88;;;3.30;;
68843;SDS011;55850;51.244;6.824;2022-09-13T21:42:45;3.90;;;3.10;;
68843;SDS011;55850;51.244;6.824;2022-09-13T21:47:51;5.00;;;3.50;;
68843;SDS011;55850;51.244;6.824;2022-09-13T21:53:00;4.20;;;2.60;;
68843;SDS011;55850;51.244;6.824;2022-09-13T21:58:07;6.03;;;2.83;;
68843;SDS011;55850;51.244;6.824;2022-09-13T22:03:13;4.75;;;2.67;;
68843;SDS011;55850;51.244;6.824;2022-09-13T22:08:21;4.93;;;2.90;;
68843;SDS011;55850;51.244;6.824;2022-09-13T22:13:27;4.60;;;2.65;;
68843;SDS011;55850;51.244;6.824;2022-09-13T22:18:32;3.20;;;2.25;;
68843;SDS011;55850;51.244;6.824;2022-09-13T22:23:41;3.00;;;1.93;;
68843;SDS011;55850;51.244;6.824;2022-09-13T22:28:47;2.75;;;1.95;;
68843;SDS011;55850;51.244;6.824;2022-09-13T22:33:54;3.35;;;2.30;;
68843;SDS011;55850;51.244;6.824;2022-09-13T22:39:02;2.93;;;1.80;;
68843;SDS011;55850;51.244;6.824;2022-09-13T22:44:08;4.47;;;1.90;;
68843;SDS011;55850;51.244;6.824;2022-09-13T22:49:15;3.03;;;1.63;;
68843;SDS011;55850;51.244;6.824;2022-09-13T22:54:25;2.33;;;1.75;;
68843;SDS011;55850;51.244;6.824;2022-09-13T22:59:31;2.83;;;1.63;;
68843;SDS011;55850;51.244;6.824;2022-09-13T23:04:37;3.67;;;1.50;;
68843;SDS011;55850;51.244;6.824;2022-09-13T23:09:45;3.30;;;1.60;;
68843;SDS011;55850;51.244;6.824;2022-09-13T23:14:50;3.63;;;1.63;;
68843;SDS011;55850;51.244;6.824;2022-09-13T23:19:56;2.72;;;1.15;;
68843;SDS011;55850;51.244;6.824;2022-09-13T23:25:05;5.57;;;1.50;;
68843;SDS011;55850;51.244;6.824;2022-09-13T23:30:12;4.07;;;1.60;;
68843;SDS011;55850;51.244;6.824;2022-09-13T23:35:17;3.90;;;1.70;;
68843;SDS011;55850;51.244;6.824;2022-09-13T23:40:26;3.47;;;1.52;;
68843;SDS011;55850;51.244;6.824;2022-09-13T23:45:33;3.70;;;1.30;;
68843;SDS011;55850;51.244;6.824;2022-09-13T23:50:38;5.53;;;1.27;;
68843;SDS011;55850;51.244;6.824;2022-09-13T23:55:46;4.72;;;1.30;;
